sensor_id;sensor_type;location;lat;lon;timestamp;temperature;humidity
45311;SHT31;68264;51.540;5.854;2023-02-28T00:02:35;-1.9;81.5
45311;SHT31;68264;51.540;5.854;2023-02-28T00:18:34;-2.0;81.5
45311;SHT31;68264;51.540;5.854;2023-02-28T00:32:53;-2.2;80.6
45311;SHT31;68264;51.540;5.854;2023-02-28T00:48:15;-2.0;81.5
45311;SHT31;68264;51.540;5.854;2023-02-28T01:04:14;-2.2;81.3
45311;SHT31;68264;51.540;5.854;2023-02-28T01:18:33;-2.4;81.5
45311;SHT31;68264;51.540;5.854;2023-02-28T01:32:51;-2.3;81.9
45311;SHT31;68264;51.540;5.854;2023-02-28T01:47:39;-2.4;81.6
45311;SHT31;68264;51.540;5.854;2023-02-28T02:01:58;-2.4;81.6
45311;SHT31;68264;51.540;5.854;2023-02-28T02:16:16;-2.4;82.0
45311;SHT31;68264;51.540;5.854;2023-02-28T02:31:04;-2.2;82.0
45311;SHT31;68264;51.540;5.854;2023-02-28T02:45:52;-2.4;82.5
45311;SHT31;68264;51.540;5.854;2023-02-28T03:00:11;-2.4;82.6
45311;SHT31;68264;51.540;5.854;2023-02-28T03:14:39;-2.4;81.9
45311;SHT31;68264;51.540;5.854;2023-02-28T03:30:31;-2.2;83.1
45311;SHT31;68264;51.540;5.854;2023-02-28T03:46:01;-1.7;83.3
45311;SHT31;68264;51.540;5.854;2023-02-28T04:00:00;-1.2;83.6
45311;SHT31;68264;51.540;5.854;2023-02-28T04:14:17;-0.8;83.6
45311;SHT31;68264;51.540;5.854;2023-02-28T04:28:36;-0.5;82.5
45311;SHT31;68264;51.540;5.854;2023-02-28T04:42:54;-0.4;82.4
45311;SHT31;68264;51.540;5.854;2023-02-28T04:57:13;-0.3;82.0
45311;SHT31;68264;51.540;5.854;2023-02-28T05:11:31;-0.3;81.3
45311;SHT31;68264;51.540;5.854;2023-02-28T05:25:50;-0.2;81.2
45311;SHT31;68264;51.540;5.854;2023-02-28T05:40:40;-0.1;80.8
45311;SHT31;68264;51.540;5.854;2023-02-28T05:55:39;-0.3;80.7
45311;SHT31;68264;51.540;5.854;2023-02-28T06:09:57;-0.3;79.6
45311;SHT31;68264;51.540;5.854;2023-02-28T06:24:16;-0.6;79.6
45311;SHT31;68264;51.540;5.854;2023-02-28T06:39:48;-0.9;79.4
45311;SHT31;68264;51.540;5.854;2023-02-28T06:55:18;-0.9;79.7
45311;SHT31;68264;51.540;5.854;2023-02-28T07:09:07;1.0;75.8
45311;SHT31;68264;51.540;5.854;2023-02-28T07:23:05;2.5;70.9
45311;SHT31;68264;51.540;5.854;2023-02-28T07:36:54;4.0;67.9
45311;SHT31;68264;51.540;5.854;2023-02-28T07:50:53;3.3;68.5
45311;SHT31;68264;51.540;5.854;2023-02-28T08:04:42;3.8;67.2
45311;SHT31;68264;51.540;5.854;2023-02-28T08:20:14;3.8;65.5
45311;SHT31;68264;51.540;5.854;2023-02-28T08:37:17;4.4;58.4
45311;SHT31;68264;51.540;5.854;2023-02-28T08:53:48;4.3;58.9
45311;SHT31;68264;51.540;5.854;2023-02-28T09:10:20;4.9;52.3
45311;SHT31;68264;51.540;5.854;2023-02-28T09:25:50;5.3;51.4
45311;SHT31;68264;51.540;5.854;2023-02-28T09:40:18;5.2;48.3
45311;SHT31;68264;51.540;5.854;2023-02-28T09:54:37;5.4;48.0
45311;SHT31;68264;51.540;5.854;2023-02-28T10:08:26;4.9;46.0
45311;SHT31;68264;51.540;5.854;2023-02-28T10:22:14;5.0;45.3
45311;SHT31;68264;51.540;5.854;2023-02-28T10:36:03;5.9;45.0
45311;SHT31;68264;51.540;5.854;2023-02-28T10:49:52;6.0;45.1
45311;SHT31;68264;51.540;5.854;2023-02-28T11:03:40;5.8;46.4
45311;SHT31;68264;51.540;5.854;2023-02-28T11:17:29;5.9;46.7
45311;SHT31;68264;51.540;5.854;2023-02-28T11:31:18;5.5;48.6
45311;SHT31;68264;51.540;5.854;2023-02-28T11:45:07;5.9;49.1
45311;SHT31;68264;51.540;5.854;2023-02-28T11:59:56;5.8;48.0
45311;SHT31;68264;51.540;5.854;2023-02-28T12:14:56;6.4;45.6
45311;SHT31;68264;51.540;5.854;2023-02-28T12:28:44;6.8;44.5
45311;SHT31;68264;51.540;5.854;2023-02-28T12:43:34;6.8;43.3
45311;SHT31;68264;51.540;5.854;2023-02-28T12:58:34;6.7;43.5
45311;SHT31;68264;51.540;5.854;2023-02-28T13:12:22;6.8;44.0
45311;SHT31;68264;51.540;5.854;2023-02-28T13:26:11;7.0;46.3
45311;SHT31;68264;51.540;5.854;2023-02-28T13:40:29;6.8;45.8
45311;SHT31;68264;51.540;5.854;2023-02-28T13:54:48;6.6;44.6
45311;SHT31;68264;51.540;5.854;2023-02-28T14:09:06;6.7;44.3
45311;SHT31;68264;51.540;5.854;2023-02-28T14:23:54;6.7;44.9
45311;SHT31;68264;51.540;5.854;2023-02-28T14:38:13;6.8;44.4
45311;SHT31;68264;51.540;5.854;2023-02-28T14:52:12;7.5;45.3
45311;SHT31;68264;51.540;5.854;2023-02-28T15:06:01;7.3;44.9
45311;SHT31;68264;51.540;5.854;2023-02-28T15:20:18;7.1;45.1
45311;SHT31;68264;51.540;5.854;2023-02-28T15:34:37;6.8;47.2
45311;SHT31;68264;51.540;5.854;2023-02-28T15:48:36;6.5;47.6
45311;SHT31;68264;51.540;5.854;2023-02-28T16:02:25;6.5;45.9
45311;SHT31;68264;51.540;5.854;2023-02-28T16:16:14;6.6;47.5
45311;SHT31;68264;51.540;5.854;2023-02-28T16:30:12;6.3;48.2
45311;SHT31;68264;51.540;5.854;2023-02-28T16:44:01;5.7;51.0
45311;SHT31;68264;51.540;5.854;2023-02-28T16:57:50;5.2;52.6
45311;SHT31;68264;51.540;5.854;2023-02-28T17:12:40;4.9;53.8
45311;SHT31;68264;51.540;5.854;2023-02-28T17:27:39;4.0;56.6
45311;SHT31;68264;51.540;5.854;2023-02-28T17:42:07;3.1;58.5
45311;SHT31;68264;51.540;5.854;2023-02-28T17:56:55;2.3;61.1
45311;SHT31;68264;51.540;5.854;2023-02-28T18:11:43;1.7;62.8
45311;SHT31;68264;51.540;5.854;2023-02-28T18:26:02;1.0;65.8
45311;SHT31;68264;51.540;5.854;2023-02-28T18:39:51;0.6;65.8
45311;SHT31;68264;51.540;5.854;2023-02-28T18:53:40;0.2;66.6
45311;SHT31;68264;51.540;5.854;2023-02-28T19:07:39;0.1;67.9
45311;SHT31;68264;51.540;5.854;2023-02-28T19:21:57;0.1;69.0
45311;SHT31;68264;51.540;5.854;2023-02-28T19:36:16;-0.1;69.3
45311;SHT31;68264;51.540;5.854;2023-02-28T19:50:33;-0.3;69.4
45311;SHT31;68264;51.540;5.854;2023-02-28T20:04:52;-0.7;69.6
45311;SHT31;68264;51.540;5.854;2023-02-28T20:18:41;-0.9;71.0
45311;SHT31;68264;51.540;5.854;2023-02-28T20:32:30;-0.8;70.7
45311;SHT31;68264;51.540;5.854;2023-02-28T20:46:18;-0.9;70.7
45311;SHT31;68264;51.540;5.854;2023-02-28T21:00:07;-1.1;71.5
45311;SHT31;68264;51.540;5.854;2023-02-28T21:13:56;-1.5;71.4
45311;SHT31;68264;51.540;5.854;2023-02-28T21:27:45;-1.8;72.4
45311;SHT31;68264;51.540;5.854;2023-02-28T21:41:33;-1.8;73.8
45311;SHT31;68264;51.540;5.854;2023-02-28T21:55:22;-1.8;75.1
45311;SHT31;68264;51.540;5.854;2023-02-28T22:09:11;-2.0;74.5
45311;SHT31;68264;51.540;5.854;2023-02-28T22:22:59;-2.2;74.9
45311;SHT31;68264;51.540;5.854;2023-02-28T22:36:48;-2.3;75.5
45311;SHT31;68264;51.540;5.854;2023-02-28T22:50:37;-2.3;76.6
45311;SHT31;68264;51.540;5.854;2023-02-28T23:04:35;-2.2;77.0
45311;SHT31;68264;51.540;5.854;2023-02-28T23:18:24;-2.4;76.2
45311;SHT31;68264;51.540;5.854;2023-02-28T23:32:42;-2.3;77.7
45311;SHT31;68264;51.540;5.854;2023-02-28T23:47:01;-2.1;76.4
